Moor Row, United Kingdom
Current Conditions -  °F | °C
As of 9:50 PM on Sunday 25 Jan 2015 (Local Time) from EGNS Reporting Station
Moderate Rain Moderate Rain  
Wind Chill: 50°   Ceiling: 1000
Heat Index: 50°   Visibility: 6mi
Dew Point: 48°   Wind: 20mph
Humidity: 94%   Direction: 240°WSW
Pressure: 30.09"   Gusts: NA
Location:  54.51°N, 3.54°W
Report Text: EGNS 252150Z 24017KT 9000 RA OVC010 10/09 Q1019
Loading
Personal Weather Stations






























Interactive Weather Map New forecast layout! Learn more

10-Day Weather Forecast

Advertisements
Track Severe Weather on mobile